sensor_id;sensor_type;location;lat;lon;timestamp;temperature;humidity
53053;DHT22;38934;52.690;6.184;2023-03-23T00:00:04;11.70;99.90
53053;DHT22;38934;52.690;6.184;2023-03-23T00:02:31;11.10;99.90
53053;DHT22;38934;52.690;6.184;2023-03-23T00:05:07;11.10;99.90
53053;DHT22;38934;52.690;6.184;2023-03-23T00:07:35;11.10;99.90
53053;DHT22;38934;52.690;6.184;2023-03-23T00:10:01;11.00;99.90
53053;DHT22;38934;52.690;6.184;2023-03-23T00:12:29;11.00;99.90
53053;DHT22;38934;52.690;6.184;2023-03-23T00:15:05;11.10;99.90
53053;DHT22;38934;52.690;6.184;2023-03-23T00:17:32;11.00;99.90
53053;DHT22;38934;52.690;6.184;2023-03-23T00:19:59;11.00;99.90
53053;DHT22;38934;52.690;6.184;2023-03-23T00:22:27;11.00;99.90
53053;DHT22;38934;52.690;6.184;2023-03-23T00:24:53;11.30;99.90
53053;DHT22;38934;52.690;6.184;2023-03-23T00:27:19;11.00;99.90
53053;DHT22;38934;52.690;6.184;2023-03-23T00:29:48;12.00;99.90
53053;DHT22;38934;52.690;6.184;2023-03-23T00:32:18;11.00;99.90
53053;DHT22;38934;52.690;6.184;2023-03-23T00:34:46;11.10;99.90
53053;DHT22;38934;52.690;6.184;2023-03-23T00:37:14;11.30;99.90
53053;DHT22;38934;52.690;6.184;2023-03-23T00:39:42;11.00;99.90
53053;DHT22;38934;52.690;6.184;2023-03-23T00:42:11;11.00;99.90
53053;DHT22;38934;52.690;6.184;2023-03-23T00:44:37;11.10;99.90
53053;DHT22;38934;52.690;6.184;2023-03-23T00:47:05;11.00;99.90
53053;DHT22;38934;52.690;6.184;2023-03-23T00:49:31;11.00;99.90
53053;DHT22;38934;52.690;6.184;2023-03-23T00:52:00;11.40;99.90
53053;DHT22;38934;52.690;6.184;2023-03-23T00:54:26;11.10;99.90
53053;DHT22;38934;52.690;6.184;2023-03-23T00:56:52;11.00;99.90
53053;DHT22;38934;52.690;6.184;2023-03-23T00:59:18;11.00;99.90
53053;DHT22;38934;52.690;6.184;2023-03-23T01:01:44;11.00;99.90
53053;DHT22;38934;52.690;6.184;2023-03-23T01:04:10;11.10;99.90
53053;DHT22;38934;52.690;6.184;2023-03-23T01:06:39;11.00;99.90
53053;DHT22;38934;52.690;6.184;2023-03-23T01:09:15;11.00;99.90
53053;DHT22;38934;52.690;6.184;2023-03-23T01:11:43;11.00;99.90
53053;DHT22;38934;52.690;6.184;2023-03-23T01:14:11;11.10;99.90
53053;DHT22;38934;52.690;6.184;2023-03-23T01:16:37;11.00;99.90
53053;DHT22;38934;52.690;6.184;2023-03-23T01:19:02;11.00;99.90
53053;DHT22;38934;52.690;6.184;2023-03-23T01:21:28;11.70;99.90
53053;DHT22;38934;52.690;6.184;2023-03-23T01:23:54;11.00;99.90
53053;DHT22;38934;52.690;6.184;2023-03-23T01:26:24;11.10;99.90
53053;DHT22;38934;52.690;6.184;2023-03-23T01:28:51;11.80;99.90
53053;DHT22;38934;52.690;6.184;2023-03-23T01:31:19;11.10;99.90
53053;DHT22;38934;52.690;6.184;2023-03-23T01:33:45;11.10;99.90
53053;DHT22;38934;52.690;6.184;2023-03-23T01:36:17;11.80;99.90
53053;DHT22;38934;52.690;6.184;2023-03-23T01:38:44;11.70;99.90
53053;DHT22;38934;52.690;6.184;2023-03-23T01:41:11;11.60;99.90
53053;DHT22;38934;52.690;6.184;2023-03-23T01:43:57;11.10;99.90
53053;DHT22;38934;52.690;6.184;2023-03-23T01:46:26;11.10;99.90
53053;DHT22;38934;52.690;6.184;2023-03-23T01:48:52;11.20;99.90
53053;DHT22;38934;52.690;6.184;2023-03-23T01:51:19;11.60;99.90
53053;DHT22;38934;52.690;6.184;2023-03-23T01:56:20;11.10;99.90
53053;DHT22;38934;52.690;6.184;2023-03-23T01:58:51;11.10;99.90
53053;DHT22;38934;52.690;6.184;2023-03-23T02:01:18;11.10;99.90
53053;DHT22;38934;52.690;6.184;2023-03-23T02:03:46;11.10;99.90
53053;DHT22;38934;52.690;6.184;2023-03-23T02:06:13;11.20;99.90
53053;DHT22;38934;52.690;6.184;2023-03-23T02:08:40;11.00;99.90
53053;DHT22;38934;52.690;6.184;2023-03-23T02:11:21;11.50;99.90
53053;DHT22;38934;52.690;6.184;2023-03-23T02:13:48;11.00;99.90
53053;DHT22;38934;52.690;6.184;2023-03-23T02:16:45;11.60;99.90
53053;DHT22;38934;52.690;6.184;2023-03-23T02:19:20;11.00;99.90
53053;DHT22;38934;52.690;6.184;2023-03-23T02:27:25;11.00;99.90
53053;DHT22;38934;52.690;6.184;2023-03-23T02:30:11;11.10;99.90
53053;DHT22;38934;52.690;6.184;2023-03-23T02:33:15;11.00;99.90
53053;DHT22;38934;52.690;6.184;2023-03-23T02:35:52;11.10;99.90
53053;DHT22;38934;52.690;6.184;2023-03-23T02:38:24;11.10;99.90
53053;DHT22;38934;52.690;6.184;2023-03-23T02:40:53;11.10;99.90
53053;DHT22;38934;52.690;6.184;2023-03-23T02:43:22;11.80;99.90
53053;DHT22;38934;52.690;6.184;2023-03-23T02:45:50;11.10;99.90
53053;DHT22;38934;52.690;6.184;2023-03-23T02:48:19;11.10;99.90
53053;DHT22;38934;52.690;6.184;2023-03-23T02:50:47;11.30;99.90
53053;DHT22;38934;52.690;6.184;2023-03-23T02:53:18;11.30;99.90
53053;DHT22;38934;52.690;6.184;2023-03-23T02:55:44;11.10;99.90
53053;DHT22;38934;52.690;6.184;2023-03-23T02:58:12;11.10;99.90
53053;DHT22;38934;52.690;6.184;2023-03-23T03:00:38;11.00;99.90
53053;DHT22;38934;52.690;6.184;2023-03-23T03:03:05;11.40;99.90
53053;DHT22;38934;52.690;6.184;2023-03-23T03:05:45;11.00;99.90
53053;DHT22;38934;52.690;6.184;2023-03-23T03:10:59;11.00;99.90
53053;DHT22;38934;52.690;6.184;2023-03-23T03:13:44;11.10;99.90
53053;DHT22;38934;52.690;6.184;2023-03-23T03:18:54;11.00;99.90
53053;DHT22;38934;52.690;6.184;2023-03-23T03:21:23;11.00;99.90
53053;DHT22;38934;52.690;6.184;2023-03-23T03:23:52;11.00;99.90
53053;DHT22;38934;52.690;6.184;2023-03-23T03:26:19;11.00;99.90
53053;DHT22;38934;52.690;6.184;2023-03-23T03:28:47;11.10;99.90
53053;DHT22;38934;52.690;6.184;2023-03-23T03:31:16;11.00;99.90
53053;DHT22;38934;52.690;6.184;2023-03-23T03:33:43;11.70;99.90
53053;DHT22;38934;52.690;6.184;2023-03-23T03:36:15;11.20;99.90
53053;DHT22;38934;52.690;6.184;2023-03-23T03:38:46;11.00;99.90
53053;DHT22;38934;52.690;6.184;2023-03-23T03:41:14;11.70;99.90
53053;DHT22;38934;52.690;6.184;2023-03-23T03:43:40;11.60;99.90
53053;DHT22;38934;52.690;6.184;2023-03-23T03:46:05;11.10;99.90
53053;DHT22;38934;52.690;6.184;2023-03-23T03:48:31;11.00;99.90
53053;DHT22;38934;52.690;6.184;2023-03-23T03:50:57;11.00;99.90
53053;DHT22;38934;52.690;6.184;2023-03-23T03:53:23;11.10;99.90
53053;DHT22;38934;52.690;6.184;2023-03-23T03:55:49;11.20;99.90
53053;DHT22;38934;52.690;6.184;2023-03-23T03:58:16;11.10;99.90
53053;DHT22;38934;52.690;6.184;2023-03-23T04:00:42;11.30;99.90
53053;DHT22;38934;52.690;6.184;2023-03-23T04:03:08;11.20;99.90
53053;DHT22;38934;52.690;6.184;2023-03-23T04:05:34;11.10;99.90
53053;DHT22;38934;52.690;6.184;2023-03-23T04:08:02;11.70;99.90
53053;DHT22;38934;52.690;6.184;2023-03-23T04:10:29;11.20;99.90
53053;DHT22;38934;52.690;6.184;2023-03-23T04:12:55;11.20;99.90
53053;DHT22;38934;52.690;6.184;2023-03-23T04:15:21;11.20;99.90
53053;DHT22;38934;52.690;6.184;2023-03-23T04:17:47;12.00;99.90
53053;DHT22;38934;52.690;6.184;2023-03-23T04:20:13;11.20;99.90
53053;DHT22;38934;52.690;6.184;2023-03-23T04:22:44;12.00;99.90
53053;DHT22;38934;52.690;6.184;2023-03-23T04:25:12;11.60;99.90
53053;DHT22;38934;52.690;6.184;2023-03-23T04:27:39;11.20;99.90
53053;DHT22;38934;52.690;6.184;2023-03-23T04:30:09;11.70;99.90
53053;DHT22;38934;52.690;6.184;2023-03-23T04:32:35;11.20;99.90
53053;DHT22;38934;52.690;6.184;2023-03-23T04:35:01;11.70;99.90
53053;DHT22;38934;52.690;6.184;2023-03-23T04:37:27;11.10;99.90
53053;DHT22;38934;52.690;6.184;2023-03-23T04:39:59;11.10;99.90
53053;DHT22;38934;52.690;6.184;2023-03-23T04:42:34;11.60;99.90
53053;DHT22;38934;52.690;6.184;2023-03-23T04:45:00;11.40;99.90
53053;DHT22;38934;52.690;6.184;2023-03-23T04:47:27;10.90;99.90
53053;DHT22;38934;52.690;6.184;2023-03-23T04:49:57;10.70;99.90
53053;DHT22;38934;52.690;6.184;2023-03-23T04:52:25;11.20;99.90
53053;DHT22;38934;52.690;6.184;2023-03-23T04:54:51;10.50;99.90
53053;DHT22;38934;52.690;6.184;2023-03-23T04:57:18;10.40;99.90
53053;DHT22;38934;52.690;6.184;2023-03-23T04:59:43;10.30;99.90
53053;DHT22;38934;52.690;6.184;2023-03-23T05:02:12;10.20;99.90
53053;DHT22;38934;52.690;6.184;2023-03-23T05:04:39;10.20;99.90
53053;DHT22;38934;52.690;6.184;2023-03-23T05:07:06;10.60;99.90
53053;DHT22;38934;52.690;6.184;2023-03-23T05:09:33;10.80;99.90
53053;DHT22;38934;52.690;6.184;2023-03-23T05:12:06;10.70;99.90
53053;DHT22;38934;52.690;6.184;2023-03-23T05:14:32;10.10;99.90
53053;DHT22;38934;52.690;6.184;2023-03-23T05:16:58;10.10;99.90
53053;DHT22;38934;52.690;6.184;2023-03-23T05:19:24;10.10;99.90
53053;DHT22;38934;52.690;6.184;2023-03-23T05:21:49;10.10;99.90
53053;DHT22;38934;52.690;6.184;2023-03-23T05:24:15;10.10;99.90
53053;DHT22;38934;52.690;6.184;2023-03-23T05:26:41;10.60;99.90
53053;DHT22;38934;52.690;6.184;2023-03-23T05:29:06;10.80;99.90
53053;DHT22;38934;52.690;6.184;2023-03-23T05:31:32;10.10;99.90
53053;DHT22;38934;52.690;6.184;2023-03-23T05:33:58;10.10;99.90
53053;DHT22;38934;52.690;6.184;2023-03-23T05:36:24;10.20;99.90
53053;DHT22;38934;52.690;6.184;2023-03-23T05:38:52;10.10;99.90
53053;DHT22;38934;52.690;6.184;2023-03-23T05:41:18;10.20;99.90
53053;DHT22;38934;52.690;6.184;2023-03-23T05:43:44;10.40;99.90
53053;DHT22;38934;52.690;6.184;2023-03-23T05:46:09;10.90;99.90
53053;DHT22;38934;52.690;6.184;2023-03-23T05:48:35;10.10;99.90
53053;DHT22;38934;52.690;6.184;2023-03-23T05:51:01;10.10;99.90
53053;DHT22;38934;52.690;6.184;2023-03-23T05:53:28;10.10;99.90
53053;DHT22;38934;52.690;6.184;2023-03-23T05:55:58;10.00;99.90
53053;DHT22;38934;52.690;6.184;2023-03-23T05:58:25;10.40;99.90
53053;DHT22;38934;52.690;6.184;2023-03-23T06:00:51;9.90;99.90
53053;DHT22;38934;52.690;6.184;2023-03-23T06:03:16;9.90;99.90
53053;DHT22;38934;52.690;6.184;2023-03-23T06:05:46;9.90;99.90
53053;DHT22;38934;52.690;6.184;2023-03-23T06:08:11;9.90;99.90
53053;DHT22;38934;52.690;6.184;2023-03-23T06:10:37;10.20;99.90
53053;DHT22;38934;52.690;6.184;2023-03-23T06:13:04;10.80;99.90
53053;DHT22;38934;52.690;6.184;2023-03-23T06:15:31;10.50;99.90
53053;DHT22;38934;52.690;6.184;2023-03-23T06:18:01;10.60;99.90
53053;DHT22;38934;52.690;6.184;2023-03-23T06:20:28;9.70;99.90
53053;DHT22;38934;52.690;6.184;2023-03-23T06:22:54;9.80;99.90
53053;DHT22;38934;52.690;6.184;2023-03-23T06:25:21;11.10;99.90
53053;DHT22;38934;52.690;6.184;2023-03-23T06:27:48;10.60;99.90
53053;DHT22;38934;52.690;6.184;2023-03-23T06:30:14;10.20;99.90
53053;DHT22;38934;52.690;6.184;2023-03-23T06:32:42;9.90;99.90
53053;DHT22;38934;52.690;6.184;2023-03-23T06:35:11;9.90;99.90
53053;DHT22;38934;52.690;6.184;2023-03-23T06:37:37;10.50;99.90
53053;DHT22;38934;52.690;6.184;2023-03-23T06:40:04;10.30;99.90
53053;DHT22;38934;52.690;6.184;2023-03-23T06:42:33;10.00;99.90
53053;DHT22;38934;52.690;6.184;2023-03-23T06:44:59;10.00;99.90
53053;DHT22;38934;52.690;6.184;2023-03-23T06:47:27;10.30;99.90
53053;DHT22;38934;52.690;6.184;2023-03-23T06:49:55;10.10;99.90
53053;DHT22;38934;52.690;6.184;2023-03-23T06:52:22;10.10;99.90
53053;DHT22;38934;52.690;6.184;2023-03-23T06:54:48;10.20;99.90
53053;DHT22;38934;52.690;6.184;2023-03-23T06:57:14;10.20;99.90
53053;DHT22;38934;52.690;6.184;2023-03-23T06:59:40;10.20;99.90
53053;DHT22;38934;52.690;6.184;2023-03-23T07:02:11;10.30;99.90
53053;DHT22;38934;52.690;6.184;2023-03-23T07:04:41;10.30;99.90
53053;DHT22;38934;52.690;6.184;2023-03-23T07:07:10;10.40;99.90
53053;DHT22;38934;52.690;6.184;2023-03-23T07:09:37;10.60;99.90
53053;DHT22;38934;52.690;6.184;2023-03-23T07:12:05;10.40;99.90
53053;DHT22;38934;52.690;6.184;2023-03-23T07:14:30;10.50;99.90
53053;DHT22;38934;52.690;6.184;2023-03-23T07:16:56;11.50;99.90
53053;DHT22;38934;52.690;6.184;2023-03-23T07:19:22;10.60;99.90
53053;DHT22;38934;52.690;6.184;2023-03-23T07:21:47;10.60;99.90
53053;DHT22;38934;52.690;6.184;2023-03-23T07:24:14;11.70;99.90
53053;DHT22;38934;52.690;6.184;2023-03-23T07:26:43;10.90;99.90
53053;DHT22;38934;52.690;6.184;2023-03-23T07:29:09;11.10;99.90
53053;DHT22;38934;52.690;6.184;2023-03-23T07:31:35;11.10;99.90
53053;DHT22;38934;52.690;6.184;2023-03-23T07:34:01;11.10;99.90
53053;DHT22;38934;52.690;6.184;2023-03-23T07:36:29;11.10;99.90
53053;DHT22;38934;52.690;6.184;2023-03-23T07:38:54;11.90;99.90
53053;DHT22;38934;52.690;6.184;2023-03-23T07:41:20;11.20;99.90
53053;DHT22;38934;52.690;6.184;2023-03-23T07:43:46;12.40;99.90
53053;DHT22;38934;52.690;6.184;2023-03-23T07:46:13;11.20;99.90
53053;DHT22;38934;52.690;6.184;2023-03-23T07:48:39;11.30;99.90
53053;DHT22;38934;52.690;6.184;2023-03-23T07:51:05;11.30;99.90
53053;DHT22;38934;52.690;6.184;2023-03-23T07:53:32;11.30;99.90
53053;DHT22;38934;52.690;6.184;2023-03-23T07:55:58;11.30;99.90
53053;DHT22;38934;52.690;6.184;2023-03-23T07:58:24;12.10;99.90
53053;DHT22;38934;52.690;6.184;2023-03-23T08:00:51;12.20;99.90
53053;DHT22;38934;52.690;6.184;2023-03-23T08:03:18;11.40;99.90
53053;DHT22;38934;52.690;6.184;2023-03-23T08:05:43;11.40;99.90
53053;DHT22;38934;52.690;6.184;2023-03-23T08:08:10;11.40;99.90
53053;DHT22;38934;52.690;6.184;2023-03-23T08:10:36;12.40;99.90
53053;DHT22;38934;52.690;6.184;2023-03-23T08:13:02;11.80;99.90
53053;DHT22;38934;52.690;6.184;2023-03-23T08:15:28;11.50;99.90
53053;DHT22;38934;52.690;6.184;2023-03-23T08:17:54;11.50;99.90
53053;DHT22;38934;52.690;6.184;2023-03-23T08:20:21;11.40;99.90
53053;DHT22;38934;52.690;6.184;2023-03-23T08:22:54;11.70;99.90
53053;DHT22;38934;52.690;6.184;2023-03-23T08:25:21;12.30;99.90
53053;DHT22;38934;52.690;6.184;2023-03-23T08:27:49;11.40;99.90
53053;DHT22;38934;52.690;6.184;2023-03-23T08:30:18;11.40;99.90
53053;DHT22;38934;52.690;6.184;2023-03-23T08:32:44;11.80;99.90
53053;DHT22;38934;52.690;6.184;2023-03-23T08:35:11;12.60;99.90
53053;DHT22;38934;52.690;6.184;2023-03-23T08:37:38;12.30;99.90
53053;DHT22;38934;52.690;6.184;2023-03-23T08:40:05;12.90;99.90
53053;DHT22;38934;52.690;6.184;2023-03-23T08:42:42;11.70;99.90
53053;DHT22;38934;52.690;6.184;2023-03-23T08:45:13;12.80;99.90
53053;DHT22;38934;52.690;6.184;2023-03-23T08:47:40;11.80;99.90
53053;DHT22;38934;52.690;6.184;2023-03-23T08:50:09;11.80;99.90
53053;DHT22;38934;52.690;6.184;2023-03-23T08:52:36;11.80;99.90
53053;DHT22;38934;52.690;6.184;2023-03-23T08:55:03;12.10;99.90
53053;DHT22;38934;52.690;6.184;2023-03-23T08:57:28;11.80;99.90
53053;DHT22;38934;52.690;6.184;2023-03-23T08:59:55;12.20;99.90
53053;DHT22;38934;52.690;6.184;2023-03-23T09:02:25;12.50;99.90
53053;DHT22;38934;52.690;6.184;2023-03-23T09:04:53;12.00;99.90
53053;DHT22;38934;52.690;6.184;2023-03-23T09:07:19;12.10;99.90
53053;DHT22;38934;52.690;6.184;2023-03-23T09:09:45;13.10;99.90
53053;DHT22;38934;52.690;6.184;2023-03-23T09:12:11;13.30;99.90
53053;DHT22;38934;52.690;6.184;2023-03-23T09:14:37;13.00;99.90
53053;DHT22;38934;52.690;6.184;2023-03-23T09:17:04;12.30;99.90
53053;DHT22;38934;52.690;6.184;2023-03-23T09:19:32;12.50;99.90
53053;DHT22;38934;52.690;6.184;2023-03-23T09:21:58;13.10;99.90
53053;DHT22;38934;52.690;6.184;2023-03-23T09:24:24;12.30;99.90
53053;DHT22;38934;52.690;6.184;2023-03-23T09:26:50;13.20;99.90
53053;DHT22;38934;52.690;6.184;2023-03-23T09:29:16;12.30;99.90
53053;DHT22;38934;52.690;6.184;2023-03-23T09:31:44;13.30;99.90
53053;DHT22;38934;52.690;6.184;2023-03-23T09:34:12;12.70;99.90
53053;DHT22;38934;52.690;6.184;2023-03-23T09:36:38;12.80;99.90
53053;DHT22;38934;52.690;6.184;2023-03-23T09:39:05;13.00;99.90
53053;DHT22;38934;52.690;6.184;2023-03-23T09:47:20;13.20;99.90
53053;DHT22;38934;52.690;6.184;2023-03-23T09:52:19;13.30;99.90
53053;DHT22;38934;52.690;6.184;2023-03-23T09:54:53;14.30;99.90
53053;DHT22;38934;52.690;6.184;2023-03-23T10:08:01;14.20;99.90
53053;DHT22;38934;52.690;6.184;2023-03-23T10:16:02;13.50;99.90
53053;DHT22;38934;52.690;6.184;2023-03-23T10:18:40;14.60;99.90
53053;DHT22;38934;52.690;6.184;2023-03-23T10:21:11;13.60;99.90
53053;DHT22;38934;52.690;6.184;2023-03-23T10:23:54;13.80;99.90
53053;DHT22;38934;52.690;6.184;2023-03-23T10:29:01;14.20;99.90
53053;DHT22;38934;52.690;6.184;2023-03-23T10:31:42;13.50;99.90
53053;DHT22;38934;52.690;6.184;2023-03-23T10:36:59;13.30;99.90
53053;DHT22;38934;52.690;6.184;2023-03-23T10:39:31;13.30;99.90
53053;DHT22;38934;52.690;6.184;2023-03-23T10:42:00;13.80;99.90
53053;DHT22;38934;52.690;6.184;2023-03-23T10:44:33;13.30;99.90
53053;DHT22;38934;52.690;6.184;2023-03-23T10:47:04;14.30;99.90
53053;DHT22;38934;52.690;6.184;2023-03-23T10:49:37;13.70;99.90
53053;DHT22;38934;52.690;6.184;2023-03-23T10:52:17;13.80;99.90
53053;DHT22;38934;52.690;6.184;2023-03-23T10:54:50;13.70;99.90
53053;DHT22;38934;52.690;6.184;2023-03-23T10:57:25;14.10;99.90
53053;DHT22;38934;52.690;6.184;2023-03-23T11:00:04;13.60;99.90
53053;DHT22;38934;52.690;6.184;2023-03-23T11:02:37;13.70;99.90
53053;DHT22;38934;52.690;6.184;2023-03-23T11:05:13;14.00;99.90
53053;DHT22;38934;52.690;6.184;2023-03-23T11:07:40;13.70;99.90
53053;DHT22;38934;52.690;6.184;2023-03-23T11:10:16;14.10;99.90
53053;DHT22;38934;52.690;6.184;2023-03-23T11:12:45;14.10;99.90
53053;DHT22;38934;52.690;6.184;2023-03-23T11:15:31;14.00;99.90
53053;DHT22;38934;52.690;6.184;2023-03-23T11:18:00;13.70;99.90
53053;DHT22;38934;52.690;6.184;2023-03-23T11:20:27;14.10;99.90
53053;DHT22;38934;52.690;6.184;2023-03-23T11:22:54;13.70;99.90
53053;DHT22;38934;52.690;6.184;2023-03-23T11:25:21;13.70;99.90
53053;DHT22;38934;52.690;6.184;2023-03-23T11:27:47;13.70;99.90
53053;DHT22;38934;52.690;6.184;2023-03-23T11:30:26;13.70;99.90
53053;DHT22;38934;52.690;6.184;2023-03-23T11:32:53;14.70;99.90
53053;DHT22;38934;52.690;6.184;2023-03-23T11:35:22;14.00;99.90
53053;DHT22;38934;52.690;6.184;2023-03-23T11:37:58;14.30;99.90
53053;DHT22;38934;52.690;6.184;2023-03-23T11:40:29;15.30;99.90
53053;DHT22;38934;52.690;6.184;2023-03-23T11:42:59;15.40;99.90
53053;DHT22;38934;52.690;6.184;2023-03-23T11:45:37;15.70;99.90
53053;DHT22;38934;52.690;6.184;2023-03-23T11:53:27;14.80;99.90
53053;DHT22;38934;52.690;6.184;2023-03-23T11:58:37;14.70;99.90
53053;DHT22;38934;52.690;6.184;2023-03-23T12:01:24;14.80;99.90
53053;DHT22;38934;52.690;6.184;2023-03-23T12:04:40;14.50;99.90
53053;DHT22;38934;52.690;6.184;2023-03-23T12:10:02;14.40;99.90
53053;DHT22;38934;52.690;6.184;2023-03-23T12:12:43;14.40;99.90
53053;DHT22;38934;52.690;6.184;2023-03-23T12:20:27;14.50;99.90
53053;DHT22;38934;52.690;6.184;2023-03-23T12:23:07;15.00;99.90
53053;DHT22;38934;52.690;6.184;2023-03-23T12:25:56;14.50;99.90
53053;DHT22;38934;52.690;6.184;2023-03-23T12:44:47;15.20;99.90
53053;DHT22;38934;52.690;6.184;2023-03-23T12:50:31;14.70;99.90
53053;DHT22;38934;52.690;6.184;2023-03-23T12:53:13;14.90;99.90
53053;DHT22;38934;52.690;6.184;2023-03-23T12:55:49;15.30;99.90
53053;DHT22;38934;52.690;6.184;2023-03-23T12:58:24;16.10;99.90
53053;DHT22;38934;52.690;6.184;2023-03-23T13:01:01;15.20;99.90
53053;DHT22;38934;52.690;6.184;2023-03-23T13:06:40;15.10;99.90
53053;DHT22;38934;52.690;6.184;2023-03-23T13:11:44;15.00;99.90
53053;DHT22;38934;52.690;6.184;2023-03-23T13:25:35;15.10;99.90
53053;DHT22;38934;52.690;6.184;2023-03-23T13:28:03;15.10;99.90
53053;DHT22;38934;52.690;6.184;2023-03-23T13:30:29;15.30;99.90
53053;DHT22;38934;52.690;6.184;2023-03-23T13:33:12;15.00;99.90
53053;DHT22;38934;52.690;6.184;2023-03-23T13:35:40;15.20;99.90
53053;DHT22;38934;52.690;6.184;2023-03-23T13:38:26;14.90;99.90
53053;DHT22;38934;52.690;6.184;2023-03-23T13:40:54;15.10;99.90
53053;DHT22;38934;52.690;6.184;2023-03-23T13:43:32;14.60;99.90
53053;DHT22;38934;52.690;6.184;2023-03-23T13:48:48;14.10;99.90
53053;DHT22;38934;52.690;6.184;2023-03-23T13:51:34;13.90;99.90
53053;DHT22;38934;52.690;6.184;2023-03-23T13:56:52;14.00;99.90
53053;DHT22;38934;52.690;6.184;2023-03-23T13:59:34;13.20;99.90
53053;DHT22;38934;52.690;6.184;2023-03-23T14:02:29;13.10;99.90
53053;DHT22;38934;52.690;6.184;2023-03-23T14:04:56;13.10;99.90
53053;DHT22;38934;52.690;6.184;2023-03-23T14:07:22;13.10;99.90
53053;DHT22;38934;52.690;6.184;2023-03-23T14:09:50;13.00;99.90
53053;DHT22;38934;52.690;6.184;2023-03-23T14:12:26;13.80;99.90
53053;DHT22;38934;52.690;6.184;2023-03-23T14:14:59;13.20;99.90
53053;DHT22;38934;52.690;6.184;2023-03-23T14:17:33;13.20;99.90
53053;DHT22;38934;52.690;6.184;2023-03-23T14:20:00;13.00;99.90
53053;DHT22;38934;52.690;6.184;2023-03-23T14:22:37;13.20;99.90
53053;DHT22;38934;52.690;6.184;2023-03-23T14:25:17;13.30;99.90
53053;DHT22;38934;52.690;6.184;2023-03-23T14:27:44;13.30;99.90
53053;DHT22;38934;52.690;6.184;2023-03-23T14:30:19;13.90;99.90
53053;DHT22;38934;52.690;6.184;2023-03-23T14:32:45;13.40;99.90
53053;DHT22;38934;52.690;6.184;2023-03-23T14:35:25;13.40;99.90
53053;DHT22;38934;52.690;6.184;2023-03-23T14:37:52;13.50;99.90
53053;DHT22;38934;52.690;6.184;2023-03-23T14:40:18;13.50;99.90
53053;DHT22;38934;52.690;6.184;2023-03-23T14:42:44;13.60;99.90
53053;DHT22;38934;52.690;6.184;2023-03-23T14:45:16;13.60;99.90
53053;DHT22;38934;52.690;6.184;2023-03-23T14:47:51;13.70;99.90
53053;DHT22;38934;52.690;6.184;2023-03-23T14:53:21;13.90;99.90
53053;DHT22;38934;52.690;6.184;2023-03-23T14:55:49;13.80;99.90
53053;DHT22;38934;52.690;6.184;2023-03-23T14:58:17;13.80;99.90
53053;DHT22;38934;52.690;6.184;2023-03-23T15:00:54;14.20;99.90
53053;DHT22;38934;52.690;6.184;2023-03-23T15:03:22;13.80;99.90
53053;DHT22;38934;52.690;6.184;2023-03-23T15:06:00;13.90;99.90
53053;DHT22;38934;52.690;6.184;2023-03-23T15:08:30;14.00;99.90
53053;DHT22;38934;52.690;6.184;2023-03-23T15:13:47;14.00;99.90
53053;DHT22;38934;52.690;6.184;2023-03-23T15:16:22;14.00;99.90
53053;DHT22;38934;52.690;6.184;2023-03-23T15:19:15;14.00;99.90
53053;DHT22;38934;52.690;6.184;2023-03-23T15:21:54;13.90;99.90
53053;DHT22;38934;52.690;6.184;2023-03-23T15:24:41;13.90;99.90
53053;DHT22;38934;52.690;6.184;2023-03-23T15:29:49;14.90;99.90
53053;DHT22;38934;52.690;6.184;2023-03-23T15:32:30;14.00;99.90
53053;DHT22;38934;52.690;6.184;2023-03-23T15:34:57;14.10;99.90
53053;DHT22;38934;52.690;6.184;2023-03-23T15:37:30;14.10;99.90
53053;DHT22;38934;52.690;6.184;2023-03-23T15:39:58;14.40;99.90
53053;DHT22;38934;52.690;6.184;2023-03-23T15:42:32;14.20;99.90
53053;DHT22;38934;52.690;6.184;2023-03-23T15:52:40;14.20;99.90
53053;DHT22;38934;52.690;6.184;2023-03-23T15:55:37;14.30;99.90
53053;DHT22;38934;52.690;6.184;2023-03-23T15:58:11;15.00;99.90
53053;DHT22;38934;52.690;6.184;2023-03-23T16:00:38;14.80;99.90
53053;DHT22;38934;52.690;6.184;2023-03-23T16:03:07;14.50;99.90
53053;DHT22;38934;52.690;6.184;2023-03-23T16:05:34;14.10;99.90
53053;DHT22;38934;52.690;6.184;2023-03-23T16:08:00;14.20;99.90
53053;DHT22;38934;52.690;6.184;2023-03-23T16:10:28;14.00;99.90
53053;DHT22;38934;52.690;6.184;2023-03-23T16:12:54;14.20;99.90
53053;DHT22;38934;52.690;6.184;2023-03-23T16:15:19;13.80;99.90
53053;DHT22;38934;52.690;6.184;2023-03-23T16:17:45;13.70;99.90
53053;DHT22;38934;52.690;6.184;2023-03-23T16:20:13;14.20;99.90
53053;DHT22;38934;52.690;6.184;2023-03-23T16:22:39;14.00;99.90
53053;DHT22;38934;52.690;6.184;2023-03-23T16:25:05;13.60;99.90
53053;DHT22;38934;52.690;6.184;2023-03-23T16:27:31;13.60;99.90
53053;DHT22;38934;52.690;6.184;2023-03-23T16:29:57;13.70;99.90
53053;DHT22;38934;52.690;6.184;2023-03-23T16:32:25;13.80;99.90
53053;DHT22;38934;52.690;6.184;2023-03-23T16:34:51;13.60;99.90
53053;DHT22;38934;52.690;6.184;2023-03-23T16:37:17;13.90;99.90
53053;DHT22;38934;52.690;6.184;2023-03-23T16:39:42;13.70;99.90
53053;DHT22;38934;52.690;6.184;2023-03-23T16:42:08;13.60;99.90
53053;DHT22;38934;52.690;6.184;2023-03-23T16:44:33;13.50;99.90
53053;DHT22;38934;52.690;6.184;2023-03-23T16:46:59;13.30;99.90
53053;DHT22;38934;52.690;6.184;2023-03-23T16:49:25;13.20;99.90
53053;DHT22;38934;52.690;6.184;2023-03-23T16:51:50;13.10;99.90
53053;DHT22;38934;52.690;6.184;2023-03-23T16:54:16;13.00;99.90
53053;DHT22;38934;52.690;6.184;2023-03-23T16:56:42;12.90;99.90
53053;DHT22;38934;52.690;6.184;2023-03-23T16:59:11;12.80;99.90
53053;DHT22;38934;52.690;6.184;2023-03-23T17:01:37;12.80;99.90
53053;DHT22;38934;52.690;6.184;2023-03-23T17:04:03;12.70;99.90
53053;DHT22;38934;52.690;6.184;2023-03-23T17:06:29;12.70;99.90
53053;DHT22;38934;52.690;6.184;2023-03-23T17:08:55;12.70;99.90
53053;DHT22;38934;52.690;6.184;2023-03-23T17:11:21;12.70;99.90
53053;DHT22;38934;52.690;6.184;2023-03-23T17:13:47;12.70;99.90
53053;DHT22;38934;52.690;6.184;2023-03-23T17:16:13;12.70;99.90
53053;DHT22;38934;52.690;6.184;2023-03-23T17:18:38;12.60;99.90
53053;DHT22;38934;52.690;6.184;2023-03-23T17:21:04;12.70;99.90
53053;DHT22;38934;52.690;6.184;2023-03-23T17:23:31;12.60;99.90
53053;DHT22;38934;52.690;6.184;2023-03-23T17:25:56;12.60;99.90
53053;DHT22;38934;52.690;6.184;2023-03-23T17:28:22;12.50;99.90
53053;DHT22;38934;52.690;6.184;2023-03-23T17:30:48;12.50;99.90
53053;DHT22;38934;52.690;6.184;2023-03-23T17:33:15;12.50;99.90
53053;DHT22;38934;52.690;6.184;2023-03-23T17:35:41;12.90;99.90
53053;DHT22;38934;52.690;6.184;2023-03-23T17:38:07;12.40;99.90
53053;DHT22;38934;52.690;6.184;2023-03-23T17:40:32;13.10;99.90